sensor_id;sensor_type;location;lat;lon;timestamp;pressure;altitude;pressure_sealevel;temperature;humidity
71567;BME280;59403;47.456;19.120;2023-05-08T00:02:05;100814.44;;;11.53;80.66
71567;BME280;59403;47.456;19.120;2023-05-08T00:04:34;100817.13;;;11.61;80.92
71567;BME280;59403;47.456;19.120;2023-05-08T00:07:00;100817.00;;;11.62;80.29
71567;BME280;59403;47.456;19.120;2023-05-08T00:09:27;100819.75;;;11.35;80.99
71567;BME280;59403;47.456;19.120;2023-05-08T00:11:54;100818.78;;;11.36;80.90
71567;BME280;59403;47.456;19.120;2023-05-08T00:14:21;100813.16;;;11.39;80.50
71567;BME280;59403;47.456;19.120;2023-05-08T00:16:48;100814.06;;;11.30;80.95
71567;BME280;59403;47.456;19.120;2023-05-08T00:19:15;100806.41;;;11.27;80.39
71567;BME280;59403;47.456;19.120;2023-05-08T00:21:43;100816.25;;;10.99;81.32
71567;BME280;59403;47.456;19.120;2023-05-08T00:24:10;100811.75;;;10.82;82.37
71567;BME280;59403;47.456;19.120;2023-05-08T00:26:37;100823.41;;;10.89;81.61
71567;BME280;59403;47.456;19.120;2023-05-08T00:29:04;100823.03;;;11.02;81.56
71567;BME280;59403;47.456;19.120;2023-05-08T00:31:31;100821.31;;;11.10;81.32
71567;BME280;59403;47.456;19.120;2023-05-08T00:33:58;100828.59;;;11.08;81.98
71567;BME280;59403;47.456;19.120;2023-05-08T00:36:25;100826.06;;;11.07;82.29
71567;BME280;59403;47.456;19.120;2023-05-08T00:38:53;100833.59;;;10.84;82.62
71567;BME280;59403;47.456;19.120;2023-05-08T00:41:20;100828.03;;;10.87;82.59
71567;BME280;59403;47.456;19.120;2023-05-08T00:43:47;100820.53;;;11.00;81.63
71567;BME280;59403;47.456;19.120;2023-05-08T00:46:13;100825.66;;;10.84;82.33
71567;BME280;59403;47.456;19.120;2023-05-08T00:48:41;100825.41;;;11.05;81.51
71567;BME280;59403;47.456;19.120;2023-05-08T00:51:08;100824.19;;;10.99;81.64
71567;BME280;59403;47.456;19.120;2023-05-08T00:53:38;100824.53;;;10.87;81.73
71567;BME280;59403;47.456;19.120;2023-05-08T00:56:09;100830.56;;;10.79;81.70
71567;BME280;59403;47.456;19.120;2023-05-08T00:58:37;100826.94;;;10.80;82.00
71567;BME280;59403;47.456;19.120;2023-05-08T01:04:03;100833.72;;;10.92;82.99
71567;BME280;59403;47.456;19.120;2023-05-08T01:06:36;100831.38;;;11.07;82.18
71567;BME280;59403;47.456;19.120;2023-05-08T01:09:04;100831.59;;;10.96;83.10
71567;BME280;59403;47.456;19.120;2023-05-08T01:11:37;100835.81;;;10.89;83.46
71567;BME280;59403;47.456;19.120;2023-05-08T01:14:13;100831.78;;;10.85;83.05
71567;BME280;59403;47.456;19.120;2023-05-08T01:16:45;100840.34;;;10.79;83.66
71567;BME280;59403;47.456;19.120;2023-05-08T01:19:31;100841.84;;;10.81;83.24
71567;BME280;59403;47.456;19.120;2023-05-08T01:22:07;100846.56;;;10.87;82.43
71567;BME280;59403;47.456;19.120;2023-05-08T01:24:57;100851.25;;;10.93;81.99
71567;BME280;59403;47.456;19.120;2023-05-08T01:27:54;100860.59;;;10.97;81.77
71567;BME280;59403;47.456;19.120;2023-05-08T01:30:45;100857.03;;;10.89;83.28
71567;BME280;59403;47.456;19.120;2023-05-08T01:33:22;100862.62;;;10.86;83.23
71567;BME280;59403;47.456;19.120;2023-05-08T01:35:56;100875.44;;;10.81;83.51
71567;BME280;59403;47.456;19.120;2023-05-08T01:38:30;100872.00;;;10.71;85.12
71567;BME280;59403;47.456;19.120;2023-05-08T01:41:09;100877.72;;;10.76;85.43
71567;BME280;59403;47.456;19.120;2023-05-08T01:43:47;100875.75;;;10.78;86.12
71567;BME280;59403;47.456;19.120;2023-05-08T01:46:19;100867.50;;;10.81;85.36
71567;BME280;59403;47.456;19.120;2023-05-08T01:48:55;100863.78;;;10.74;86.41
71567;BME280;59403;47.456;19.120;2023-05-08T01:51:26;100863.91;;;10.72;85.38
71567;BME280;59403;47.456;19.120;2023-05-08T01:53:58;100872.16;;;10.69;85.68
71567;BME280;59403;47.456;19.120;2023-05-08T01:56:28;100878.84;;;10.73;85.09
71567;BME280;59403;47.456;19.120;2023-05-08T01:58:57;100872.56;;;10.74;84.59
71567;BME280;59403;47.456;19.120;2023-05-08T02:01:25;100886.41;;;10.68;86.06
71567;BME280;59403;47.456;19.120;2023-05-08T02:03:56;100873.44;;;10.65;87.25
71567;BME280;59403;47.456;19.120;2023-05-08T02:06:24;100873.41;;;10.75;85.88
71567;BME280;59403;47.456;19.120;2023-05-08T02:08:52;100877.16;;;10.72;86.14
71567;BME280;59403;47.456;19.120;2023-05-08T02:11:21;100879.16;;;10.70;86.11
71567;BME280;59403;47.456;19.120;2023-05-08T02:13:50;100884.56;;;10.69;85.53
71567;BME280;59403;47.456;19.120;2023-05-08T02:16:18;100891.09;;;10.74;85.04
71567;BME280;59403;47.456;19.120;2023-05-08T02:18:50;100879.25;;;10.78;85.12
71567;BME280;59403;47.456;19.120;2023-05-08T02:21:19;100881.09;;;10.68;85.99
71567;BME280;59403;47.456;19.120;2023-05-08T02:23:48;100890.47;;;10.63;86.66
71567;BME280;59403;47.456;19.120;2023-05-08T02:26:16;100890.69;;;10.42;86.97
71567;BME280;59403;47.456;19.120;2023-05-08T02:28:44;100890.47;;;10.53;85.70
71567;BME280;59403;47.456;19.120;2023-05-08T02:31:11;100887.41;;;10.58;85.30
71567;BME280;59403;47.456;19.120;2023-05-08T02:33:40;100892.41;;;10.70;84.52
71567;BME280;59403;47.456;19.120;2023-05-08T02:36:10;100890.84;;;10.68;84.30
71567;BME280;59403;47.456;19.120;2023-05-08T02:38:41;100888.03;;;10.79;83.42
71567;BME280;59403;47.456;19.120;2023-05-08T02:41:11;100886.41;;;10.68;84.49
71567;BME280;59403;47.456;19.120;2023-05-08T02:43:39;100888.91;;;10.70;84.42
71567;BME280;59403;47.456;19.120;2023-05-08T02:46:11;100887.22;;;10.69;84.15
71567;BME280;59403;47.456;19.120;2023-05-08T02:48:54;100887.66;;;10.64;85.27
71567;BME280;59403;47.456;19.120;2023-05-08T02:51:24;100891.97;;;10.65;85.04
71567;BME280;59403;47.456;19.120;2023-05-08T02:53:58;100881.37;;;10.65;84.71
71567;BME280;59403;47.456;19.120;2023-05-08T02:56:35;100888.34;;;10.66;84.55
71567;BME280;59403;47.456;19.120;2023-05-08T02:59:12;100888.34;;;10.66;84.24
71567;BME280;59403;47.456;19.120;2023-05-08T03:01:46;100898.25;;;10.64;84.79
71567;BME280;59403;47.456;19.120;2023-05-08T03:04:20;100895.06;;;10.61;85.82
71567;BME280;59403;47.456;19.120;2023-05-08T03:06:49;100900.81;;;10.56;85.15
71567;BME280;59403;47.456;19.120;2023-05-08T03:09:20;100898.28;;;10.55;85.97
71567;BME280;59403;47.456;19.120;2023-05-08T03:11:58;100896.31;;;10.57;85.18
71567;BME280;59403;47.456;19.120;2023-05-08T03:14:31;100902.38;;;10.49;86.53
71567;BME280;59403;47.456;19.120;2023-05-08T03:17:05;100903.19;;;10.50;85.96
71567;BME280;59403;47.456;19.120;2023-05-08T03:19:35;100898.88;;;10.49;86.13
71567;BME280;59403;47.456;19.120;2023-05-08T03:22:05;100905.31;;;10.37;86.79
71567;BME280;59403;47.456;19.120;2023-05-08T03:24:35;100905.22;;;10.28;87.57
71567;BME280;59403;47.456;19.120;2023-05-08T03:27:04;100897.94;;;10.30;87.25
71567;BME280;59403;47.456;19.120;2023-05-08T03:29:33;100900.91;;;10.18;88.63
71567;BME280;59403;47.456;19.120;2023-05-08T03:32:02;100898.25;;;10.18;88.83
71567;BME280;59403;47.456;19.120;2023-05-08T03:34:30;100901.72;;;10.18;89.52
71567;BME280;59403;47.456;19.120;2023-05-08T03:36:58;100904.38;;;10.18;88.42
71567;BME280;59403;47.456;19.120;2023-05-08T03:39:26;100907.41;;;10.04;89.56
71567;BME280;59403;47.456;19.120;2023-05-08T03:41:55;100908.69;;;10.00;90.62
71567;BME280;59403;47.456;19.120;2023-05-08T03:44:23;100908.69;;;10.00;90.46
71567;BME280;59403;47.456;19.120;2023-05-08T03:46:51;100909.81;;;10.07;90.32
71567;BME280;59403;47.456;19.120;2023-05-08T03:49:22;100919.13;;;10.02;90.63
71567;BME280;59403;47.456;19.120;2023-05-08T03:51:52;100921.91;;;9.91;91.21
71567;BME280;59403;47.456;19.120;2023-05-08T03:54:19;100920.38;;;9.98;91.06
71567;BME280;59403;47.456;19.120;2023-05-08T03:56:52;100911.59;;;10.07;90.50
71567;BME280;59403;47.456;19.120;2023-05-08T03:59:27;100914.00;;;10.10;90.68
71567;BME280;59403;47.456;19.120;2023-05-08T04:01:59;100921.09;;;10.19;90.62
71567;BME280;59403;47.456;19.120;2023-05-08T04:04:34;100918.44;;;10.28;89.53
71567;BME280;59403;47.456;19.120;2023-05-08T04:07:08;100914.50;;;10.32;88.98
71567;BME280;59403;47.456;19.120;2023-05-08T04:09:41;100919.66;;;10.34;89.04
71567;BME280;59403;47.456;19.120;2023-05-08T04:12:14;100921.06;;;10.38;90.21
71567;BME280;59403;47.456;19.120;2023-05-08T04:14:48;100927.31;;;10.47;89.46
71567;BME280;59403;47.456;19.120;2023-05-08T04:17:21;100926.06;;;10.51;88.59
71567;BME280;59403;47.456;19.120;2023-05-08T04:19:57;100931.06;;;10.54;88.91
71567;BME280;59403;47.456;19.120;2023-05-08T04:22:27;100932.16;;;10.61;88.28
71567;BME280;59403;47.456;19.120;2023-05-08T04:24:57;100937.44;;;10.61;87.92
71567;BME280;59403;47.456;19.120;2023-05-08T04:27:27;100943.00;;;10.67;87.69
71567;BME280;59403;47.456;19.120;2023-05-08T04:29:57;100945.09;;;10.64;87.39
71567;BME280;59403;47.456;19.120;2023-05-08T04:32:25;100951.09;;;10.66;87.25
71567;BME280;59403;47.456;19.120;2023-05-08T04:34:53;100952.47;;;10.70;87.46
71567;BME280;59403;47.456;19.120;2023-05-08T04:37:23;100955.81;;;10.72;87.78
71567;BME280;59403;47.456;19.120;2023-05-08T04:39:51;100953.34;;;10.61;81.09
71567;BME280;59403;47.456;19.120;2023-05-08T04:42:18;100959.97;;;10.84;82.17
71567;BME280;59403;47.456;19.120;2023-05-08T04:44:45;100967.47;;;10.88;81.14
71567;BME280;59403;47.456;19.120;2023-05-08T04:47:14;100963.72;;;10.91;79.27
71567;BME280;59403;47.456;19.120;2023-05-08T04:49:41;100972.47;;;10.91;79.50
71567;BME280;59403;47.456;19.120;2023-05-08T04:52:08;100981.84;;;10.86;78.45
71567;BME280;59403;47.456;19.120;2023-05-08T04:54:35;100983.06;;;10.91;78.65
71567;BME280;59403;47.456;19.120;2023-05-08T04:57:02;100984.00;;;11.00;77.94
71567;BME280;59403;47.456;19.120;2023-05-08T04:59:29;100981.03;;;11.12;77.70
71567;BME280;59403;47.456;19.120;2023-05-08T05:01:56;100992.63;;;11.11;77.84
71567;BME280;59403;47.456;19.120;2023-05-08T05:04:24;100984.56;;;11.03;75.20
71567;BME280;59403;47.456;19.120;2023-05-08T05:06:51;100981.03;;;11.12;75.13
71567;BME280;59403;47.456;19.120;2023-05-08T05:09:19;100994.16;;;11.14;75.63
71567;BME280;59403;47.456;19.120;2023-05-08T05:11:45;100990.63;;;10.86;74.13
71567;BME280;59403;47.456;19.120;2023-05-08T05:14:12;100998.72;;;10.85;74.60
71567;BME280;59403;47.456;19.120;2023-05-08T05:16:39;100996.91;;;10.85;74.80
71567;BME280;59403;47.456;19.120;2023-05-08T05:19:06;100994.13;;;10.87;74.75
71567;BME280;59403;47.456;19.120;2023-05-08T05:21:34;100992.72;;;10.83;73.77
71567;BME280;59403;47.456;19.120;2023-05-08T05:24:02;100995.91;;;10.96;74.66
71567;BME280;59403;47.456;19.120;2023-05-08T05:26:30;100991.84;;;11.01;73.95
71567;BME280;59403;47.456;19.120;2023-05-08T05:28:57;100998.91;;;11.10;74.13
71567;BME280;59403;47.456;19.120;2023-05-08T05:31:24;101004.81;;;11.04;72.90
71567;BME280;59403;47.456;19.120;2023-05-08T05:33:51;101008.72;;;11.00;73.30
71567;BME280;59403;47.456;19.120;2023-05-08T05:36:18;101002.91;;;10.78;73.36
71567;BME280;59403;47.456;19.120;2023-05-08T05:38:46;101002.91;;;10.87;73.04
71567;BME280;59403;47.456;19.120;2023-05-08T05:41:13;101007.63;;;10.93;72.69
71567;BME280;59403;47.456;19.120;2023-05-08T05:43:40;101012.56;;;10.69;72.43
71567;BME280;59403;47.456;19.120;2023-05-08T05:46:08;101006.53;;;10.86;72.13
71567;BME280;59403;47.456;19.120;2023-05-08T05:48:35;101012.97;;;10.84;72.41
71567;BME280;59403;47.456;19.120;2023-05-08T05:51:02;101017.81;;;10.88;71.69
71567;BME280;59403;47.456;19.120;2023-05-08T05:53:30;101021.16;;;10.90;72.28
71567;BME280;59403;47.456;19.120;2023-05-08T05:55:58;101017.34;;;11.02;71.95
71567;BME280;59403;47.456;19.120;2023-05-08T05:58:25;101019.63;;;10.97;71.90
71567;BME280;59403;47.456;19.120;2023-05-08T06:00:53;101025.56;;;11.09;72.49
71567;BME280;59403;47.456;19.120;2023-05-08T06:03:20;101023.22;;;10.96;72.12
71567;BME280;59403;47.456;19.120;2023-05-08T06:05:47;101028.12;;;10.91;72.23
71567;BME280;59403;47.456;19.120;2023-05-08T06:08:14;101028.09;;;11.01;72.55
71567;BME280;59403;47.456;19.120;2023-05-08T06:10:42;101033.00;;;10.96;73.18
71567;BME280;59403;47.456;19.120;2023-05-08T06:13:10;101019.41;;;11.18;72.97
71567;BME280;59403;47.456;19.120;2023-05-08T06:15:37;101022.88;;;11.18;72.19
71567;BME280;59403;47.456;19.120;2023-05-08T06:18:04;101023.37;;;11.31;72.55
71567;BME280;59403;47.456;19.120;2023-05-08T06:20:31;101025.00;;;11.15;72.51
71567;BME280;59403;47.456;19.120;2023-05-08T06:22:58;101016.19;;;11.41;72.24
71567;BME280;59403;47.456;19.120;2023-05-08T06:25:24;101027.56;;;11.71;72.23
71567;BME280;59403;47.456;19.120;2023-05-08T06:27:52;101028.00;;;11.57;71.44
71567;BME280;59403;47.456;19.120;2023-05-08T06:30:20;101031.22;;;11.60;71.72
71567;BME280;59403;47.456;19.120;2023-05-08T06:32:48;101031.44;;;11.76;73.12
71567;BME280;59403;47.456;19.120;2023-05-08T06:35:15;101033.09;;;11.50;71.49
71567;BME280;59403;47.456;19.120;2023-05-08T06:37:43;101032.78;;;11.80;71.91
71567;BME280;59403;47.456;19.120;2023-05-08T06:40:11;101022.12;;;11.90;70.35
71567;BME280;59403;47.456;19.120;2023-05-08T06:42:38;101022.31;;;11.79;70.64
71567;BME280;59403;47.456;19.120;2023-05-08T06:45:06;101020.16;;;11.92;70.13
71567;BME280;59403;47.456;19.120;2023-05-08T06:47:34;101033.97;;;11.95;69.51
71567;BME280;59403;47.456;19.120;2023-05-08T06:50:01;101034.78;;;11.96;70.30
71567;BME280;59403;47.456;19.120;2023-05-08T06:52:28;101034.59;;;12.24;69.12
71567;BME280;59403;47.456;19.120;2023-05-08T06:54:55;101039.78;;;12.16;68.52
71567;BME280;59403;47.456;19.120;2023-05-08T06:57:22;101042.38;;;12.43;68.72
71567;BME280;59403;47.456;19.120;2023-05-08T06:59:51;101036.28;;;12.51;67.55
71567;BME280;59403;47.456;19.120;2023-05-08T07:02:18;101038.81;;;12.17;67.68
71567;BME280;59403;47.456;19.120;2023-05-08T07:04:47;101042.69;;;12.40;67.07
71567;BME280;59403;47.456;19.120;2023-05-08T07:07:13;101043.94;;;12.72;64.74
71567;BME280;59403;47.456;19.120;2023-05-08T07:09:41;101044.88;;;12.88;63.64
71567;BME280;59403;47.456;19.120;2023-05-08T07:12:08;101041.56;;;13.12;62.34
71567;BME280;59403;47.456;19.120;2023-05-08T07:14:35;101043.41;;;13.87;61.60
71567;BME280;59403;47.456;19.120;2023-05-08T07:17:02;101045.59;;;13.91;59.17
71567;BME280;59403;47.456;19.120;2023-05-08T07:19:31;101042.31;;;14.05;59.17
71567;BME280;59403;47.456;19.120;2023-05-08T07:21:59;101046.31;;;14.17;58.89
71567;BME280;59403;47.456;19.120;2023-05-08T07:24:26;101050.22;;;14.47;58.52
71567;BME280;59403;47.456;19.120;2023-05-08T07:26:53;101042.53;;;14.60;58.94
71567;BME280;59403;47.456;19.120;2023-05-08T07:29:20;101040.53;;;14.94;57.20
71567;BME280;59403;47.456;19.120;2023-05-08T07:31:47;101038.72;;;14.78;55.82
71567;BME280;59403;47.456;19.120;2023-05-08T07:34:16;101038.00;;;15.01;55.40
71567;BME280;59403;47.456;19.120;2023-05-08T07:36:43;101038.53;;;14.88;55.62
71567;BME280;59403;47.456;19.120;2023-05-08T07:39:12;101042.69;;;14.91;57.06
71567;BME280;59403;47.456;19.120;2023-05-08T07:41:39;101047.03;;;14.92;56.69
71567;BME280;59403;47.456;19.120;2023-05-08T07:44:06;101044.75;;;15.43;55.34
71567;BME280;59403;47.456;19.120;2023-05-08T07:46:33;101043.53;;;14.67;55.08
71567;BME280;59403;47.456;19.120;2023-05-08T07:49:00;101049.34;;;14.87;56.93
71567;BME280;59403;47.456;19.120;2023-05-08T07:51:26;101051.00;;;14.88;56.73
71567;BME280;59403;47.456;19.120;2023-05-08T07:53:53;101041.41;;;15.41;54.71
71567;BME280;59403;47.456;19.120;2023-05-08T07:56:22;101043.25;;;15.33;55.02
71567;BME280;59403;47.456;19.120;2023-05-08T07:58:49;101045.66;;;15.66;54.67
71567;BME280;59403;47.456;19.120;2023-05-08T08:01:15;101041.47;;;16.03;54.51
71567;BME280;59403;47.456;19.120;2023-05-08T08:03:43;101047.97;;;15.07;54.52
71567;BME280;59403;47.456;19.120;2023-05-08T08:06:10;101041.22;;;15.51;55.65
71567;BME280;59403;47.456;19.120;2023-05-08T08:08:37;101038.91;;;16.09;53.79
71567;BME280;59403;47.456;19.120;2023-05-08T08:11:05;101038.56;;;15.81;53.89
71567;BME280;59403;47.456;19.120;2023-05-08T08:13:33;101045.00;;;15.64;53.94
71567;BME280;59403;47.456;19.120;2023-05-08T08:16:00;101037.84;;;16.18;53.60
71567;BME280;59403;47.456;19.120;2023-05-08T08:18:28;101034.19;;;16.42;53.10
71567;BME280;59403;47.456;19.120;2023-05-08T08:20:55;101026.28;;;16.26;52.90
71567;BME280;59403;47.456;19.120;2023-05-08T08:23:22;101038.72;;;16.64;52.21
71567;BME280;59403;47.456;19.120;2023-05-08T08:25:49;101031.00;;;16.46;52.34
71567;BME280;59403;47.456;19.120;2023-05-08T08:28:18;101035.47;;;16.54;51.83
71567;BME280;59403;47.456;19.120;2023-05-08T08:30:46;101035.53;;;16.38;52.03
71567;BME280;59403;47.456;19.120;2023-05-08T08:33:13;101020.84;;;16.79;51.99
71567;BME280;59403;47.456;19.120;2023-05-08T08:35:40;101031.69;;;17.29;51.05
71567;BME280;59403;47.456;19.120;2023-05-08T08:38:07;101027.50;;;16.97;50.83
71567;BME280;59403;47.456;19.120;2023-05-08T08:40:38;101020.09;;;16.70;50.01
71567;BME280;59403;47.456;19.120;2023-05-08T08:43:05;101020.63;;;17.32;50.99
71567;BME280;59403;47.456;19.120;2023-05-08T08:45:32;101019.78;;;17.32;49.44
71567;BME280;59403;47.456;19.120;2023-05-08T08:48:01;101024.47;;;17.15;49.96
71567;BME280;59403;47.456;19.120;2023-05-08T08:50:30;101024.31;;;17.60;49.13
71567;BME280;59403;47.456;19.120;2023-05-08T08:53:05;101021.81;;;17.44;49.04
71567;BME280;59403;47.456;19.120;2023-05-08T08:55:37;101019.84;;;16.94;47.44
71567;BME280;59403;47.456;19.120;2023-05-08T08:58:13;101030.75;;;17.66;48.09
71567;BME280;59403;47.456;19.120;2023-05-08T09:00:40;101028.56;;;17.40;46.21
71567;BME280;59403;47.456;19.120;2023-05-08T09:03:09;101013.75;;;17.73;46.74
71567;BME280;59403;47.456;19.120;2023-05-08T09:05:36;101019.47;;;17.85;45.05
71567;BME280;59403;47.456;19.120;2023-05-08T09:08:04;101020.78;;;17.31;44.80
71567;BME280;59403;47.456;19.120;2023-05-08T09:10:33;101013.69;;;17.67;46.08
71567;BME280;59403;47.456;19.120;2023-05-08T09:13:00;101012.06;;;17.87;43.89
71567;BME280;59403;47.456;19.120;2023-05-08T09:15:27;101021.75;;;18.24;44.17
71567;BME280;59403;47.456;19.120;2023-05-08T09:17:54;101014.53;;;18.24;43.80
71567;BME280;59403;47.456;19.120;2023-05-08T09:20:23;101024.41;;;17.67;43.66
71567;BME280;59403;47.456;19.120;2023-05-08T09:22:51;101009.47;;;18.36;42.85
71567;BME280;59403;47.456;19.120;2023-05-08T09:25:20;101009.22;;;18.09;41.99
71567;BME280;59403;47.456;19.120;2023-05-08T09:27:46;101012.66;;;18.25;42.36
71567;BME280;59403;47.456;19.120;2023-05-08T09:30:13;101013.31;;;18.27;42.98
71567;BME280;59403;47.456;19.120;2023-05-08T09:32:41;101013.31;;;17.55;42.42
71567;BME280;59403;47.456;19.120;2023-05-08T09:35:10;101009.91;;;18.54;42.79
71567;BME280;59403;47.456;19.120;2023-05-08T09:37:39;101001.69;;;18.89;41.96
71567;BME280;59403;47.456;19.120;2023-05-08T09:40:16;101014.16;;;18.69;40.73
71567;BME280;59403;47.456;19.120;2023-05-08T09:42:44;101010.22;;;18.30;40.75
71567;BME280;59403;47.456;19.120;2023-05-08T09:45:25;101001.88;;;19.15;41.55
71567;BME280;59403;47.456;19.120;2023-05-08T09:47:52;100996.03;;;18.50;42.60
71567;BME280;59403;47.456;19.120;2023-05-08T09:50:19;101005.41;;;18.61;40.31
71567;BME280;59403;47.456;19.120;2023-05-08T09:52:48;101006.25;;;18.40;40.56
71567;BME280;59403;47.456;19.120;2023-05-08T09:55:16;101000.28;;;18.93;41.63
71567;BME280;59403;47.456;19.120;2023-05-08T09:57:52;100996.19;;;18.70;41.23
71567;BME280;59403;47.456;19.120;2023-05-08T10:00:21;100996.47;;;18.54;41.89
71567;BME280;59403;47.456;19.120;2023-05-08T10:02:56;100991.66;;;19.04;41.47
71567;BME280;59403;47.456;19.120;2023-05-08T10:05:25;100996.47;;;19.09;41.75
71567;BME280;59403;47.456;19.120;2023-05-08T10:07:55;101001.88;;;19.50;41.75
71567;BME280;59403;47.456;19.120;2023-05-08T10:10:23;100990.13;;;19.57;40.20
71567;BME280;59403;47.456;19.120;2023-05-08T10:12:53;100989.28;;;19.16;39.76
71567;BME280;59403;47.456;19.120;2023-05-08T10:15:23;100990.88;;;19.38;40.33
71567;BME280;59403;47.456;19.120;2023-05-08T10:17:53;100989.91;;;19.52;39.61
71567;BME280;59403;47.456;19.120;2023-05-08T10:20:21;100985.69;;;19.37;41.32
71567;BME280;59403;47.456;19.120;2023-05-08T10:22:52;100970.81;;;20.01;41.22
71567;BME280;59403;47.456;19.120;2023-05-08T10:25:22;100972.19;;;19.77;39.87
71567;BME280;59403;47.456;19.120;2023-05-08T10:27:54;100981.84;;;19.18;40.83
71567;BME280;59403;47.456;19.120;2023-05-08T10:30:24;100976.06;;;19.55;39.38
71567;BME280;59403;47.456;19.120;2023-05-08T10:32:52;100972.81;;;19.73;40.50
71567;BME280;59403;47.456;19.120;2023-05-08T10:35:20;100970.44;;;19.44;38.44
71567;BME280;59403;47.456;19.120;2023-05-08T10:37:48;100958.34;;;19.27;39.00
71567;BME280;59403;47.456;19.120;2023-05-08T10:40:16;100962.34;;;19.91;39.97
71567;BME280;59403;47.456;19.120;2023-05-08T10:42:46;100960.06;;;19.00;39.89
71567;BME280;59403;47.456;19.120;2023-05-08T10:45:14;100956.47;;;18.86;38.80
71567;BME280;59403;47.456;19.120;2023-05-08T10:47:49;100956.22;;;19.15;39.16
71567;BME280;59403;47.456;19.120;2023-05-08T10:50:32;100958.81;;;19.97;38.41
71567;BME280;59403;47.456;19.120;2023-05-08T10:53:06;100952.88;;;20.41;37.81
71567;BME280;59403;47.456;19.120;2023-05-08T10:55:40;100951.78;;;20.15;39.45
71567;BME280;59403;47.456;19.120;2023-05-08T10:58:13;100953.31;;;20.64;38.05
71567;BME280;59403;47.456;19.120;2023-05-08T11:01:12;100935.31;;;20.45;37.35
71567;BME280;59403;47.456;19.120;2023-05-08T11:03:41;100941.84;;;19.90;38.27
71567;BME280;59403;47.456;19.120;2023-05-08T11:06:08;100943.09;;;19.87;37.55
71567;BME280;59403;47.456;19.120;2023-05-08T11:08:46;100941.31;;;20.47;37.52
71567;BME280;59403;47.456;19.120;2023-05-08T11:11:24;100942.75;;;20.29;36.31
71567;BME280;59403;47.456;19.120;2023-05-08T11:13:58;100932.81;;;20.43;37.40
71567;BME280;59403;47.456;19.120;2023-05-08T11:17:03;100936.53;;;20.16;36.45
71567;BME280;59403;47.456;19.120;2023-05-08T11:19:31;100931.56;;;20.65;36.97
71567;BME280;59403;47.456;19.120;2023-05-08T11:22:15;100935.47;;;20.82;36.54
71567;BME280;59403;47.456;19.120;2023-05-08T11:24:52;100929.69;;;20.66;35.23
71567;BME280;59403;47.456;19.120;2023-05-08T11:27:31;100929.28;;;20.69;36.39
71567;BME280;59403;47.456;19.120;2023-05-08T11:30:19;100934.06;;;20.27;37.38
71567;BME280;59403;47.456;19.120;2023-05-08T11:33:12;100935.69;;;20.61;37.26
71567;BME280;59403;47.456;19.120;2023-05-08T11:35:41;100912.53;;;20.54;37.34
71567;BME280;59403;47.456;19.120;2023-05-08T11:38:16;100940.97;;;19.70;36.57
71567;BME280;59403;47.456;19.120;2023-05-08T11:40:47;100934.41;;;19.98;36.88
71567;BME280;59403;47.456;19.120;2023-05-08T11:46:46;100936.53;;;20.36;34.71
71567;BME280;59403;47.456;19.120;2023-05-08T11:49:15;100937.72;;;19.87;35.03
71567;BME280;59403;47.456;19.120;2023-05-08T11:51:44;100932.19;;;20.67;35.57
71567;BME280;59403;47.456;19.120;2023-05-08T11:54:13;100930.94;;;20.37;34.36
71567;BME280;59403;47.456;19.120;2023-05-08T11:56:40;100932.19;;;20.41;35.32
71567;BME280;59403;47.456;19.120;2023-05-08T11:59:08;100932.41;;;20.40;34.46
71567;BME280;59403;47.456;19.120;2023-05-08T12:01:35;100939.03;;;20.30;33.75
71567;BME280;59403;47.456;19.120;2023-05-08T12:04:04;100941.06;;;20.42;34.70
71567;BME280;59403;47.456;19.120;2023-05-08T12:06:33;100930.97;;;20.50;34.47
71567;BME280;59403;47.456;19.120;2023-05-08T12:09:00;100930.50;;;20.14;36.71
71567;BME280;59403;47.456;19.120;2023-05-08T12:11:29;100940.00;;;20.82;35.31
71567;BME280;59403;47.456;19.120;2023-05-08T12:13:56;100927.84;;;20.53;35.30
71567;BME280;59403;47.456;19.120;2023-05-08T12:16:23;100922.03;;;21.39;35.48
71567;BME280;59403;47.456;19.120;2023-05-08T12:18:51;100931.28;;;21.57;34.29
71567;BME280;59403;47.456;19.120;2023-05-08T12:21:20;100921.94;;;21.21;34.71
71567;BME280;59403;47.456;19.120;2023-05-08T12:23:47;100924.16;;;21.31;34.53
71567;BME280;59403;47.456;19.120;2023-05-08T12:26:15;100915.91;;;21.19;34.92
71567;BME280;59403;47.456;19.120;2023-05-08T12:31:30;100919.97;;;21.41;34.92
71567;BME280;59403;47.456;19.120;2023-05-08T12:33:57;100915.75;;;20.95;35.15
71567;BME280;59403;47.456;19.120;2023-05-08T12:36:26;100924.59;;;21.28;35.26
71567;BME280;59403;47.456;19.120;2023-05-08T12:39:07;100923.12;;;21.25;33.85
71567;BME280;59403;47.456;19.120;2023-05-08T12:41:34;100921.19;;;21.46;35.40
71567;BME280;59403;47.456;19.120;2023-05-08T12:44:16;100920.94;;;20.96;36.11
71567;BME280;59403;47.456;19.120;2023-05-08T12:46:45;100919.50;;;20.81;35.72
71567;BME280;59403;47.456;19.120;2023-05-08T12:49:12;100917.44;;;20.89;36.05
71567;BME280;59403;47.456;19.120;2023-05-08T12:51:46;100926.69;;;21.13;35.77
71567;BME280;59403;47.456;19.120;2023-05-08T12:54:14;100928.25;;;21.40;35.08
71567;BME280;59403;47.456;19.120;2023-05-08T12:56:43;100913.22;;;21.13;35.47
71567;BME280;59403;47.456;19.120;2023-05-08T12:59:10;100903.53;;;20.92;34.63
71567;BME280;59403;47.456;19.120;2023-05-08T13:01:40;100921.84;;;20.38;34.48
71567;BME280;59403;47.456;19.120;2023-05-08T13:04:07;100914.16;;;20.68;35.19